メインページ
METAR-TAF:

METAR-TAF

空港 :

Blanc-Sablon, ケベック州, カナダ

緯度: 51-27N, 経度: 057-11W, 海抜: 30m

現時点の気象観測

当レポートは45分前の05:00(UTC)に作成
西の風 4kt
気温 12°C
湿度 94%
気圧 1005 hPa
視程: 24.1km
晴天

METAR: CYBX 210500Z 28004KT 15SM SKC 12/11 A2969 RMK SLP056

時間: 01:45 (05:45 UTC)

予報

当レポートは4時間3分前の01:42(UTC)に作成
予報は21日の 02時(UTC)から 21日の 14時(UTC)まで有効
変向風 3kt
視程: 10km
高度8000ftの雲はほとんどない
21日の 03時(UTC)から 21日の 05時(UTC)まで徐々に
西/北西の風 6kt
21日の 10時(UTC)から 21日の 12時(UTC)まで徐々に
西/北西の風 10kt

TAF: CYBX 210142Z 2102/2114 VRB03KT P6SM FEW080 BECMG 2103/2105 30006KT BECMG 2110/2112 30010KT RMK NXT FCST BY 210800Z

4,000以上の空港の気象観測と天気予報(METAR報とTAF報)

利用可能な観測所は地図上に黄色い丸と赤い丸で示す。

丸の上にカーソルを重ねると観測所名を参照できる。

次にクリックすると気象観測と天気予報を参照できる。

マップの切り替え:黒色「×」印の緑ボタンをクリックして拡大、「-」印の緑ボタンをクリックして縮小、緑色の三角印をクリックして隣りの地図に切り替え


METAR-TAF: